sensor_id;sensor_type;location;lat;lon;timestamp;temperature;humidity
43227;DHT22;28839;52.404;9.808;2022-10-16T00:02:55;13.50;99.90
43227;DHT22;28839;52.404;9.808;2022-10-16T00:09:50;13.50;99.90
43227;DHT22;28839;52.404;9.808;2022-10-16T00:16:44;13.50;99.90
43227;DHT22;28839;52.404;9.808;2022-10-16T00:23:38;13.40;99.90
43227;DHT22;28839;52.404;9.808;2022-10-16T00:30:33;13.30;99.90
43227;DHT22;28839;52.404;9.808;2022-10-16T00:37:27;13.10;99.90
43227;DHT22;28839;52.404;9.808;2022-10-16T00:44:47;13.00;99.90
43227;DHT22;28839;52.404;9.808;2022-10-16T00:51:45;12.90;99.90
43227;DHT22;28839;52.404;9.808;2022-10-16T00:58:40;12.90;99.90
43227;DHT22;28839;52.404;9.808;2022-10-16T01:05:38;12.80;99.90
43227;DHT22;28839;52.404;9.808;2022-10-16T01:12:41;12.50;99.90
43227;DHT22;28839;52.404;9.808;2022-10-16T01:19:50;12.50;99.90
43227;DHT22;28839;52.404;9.808;2022-10-16T01:27:05;12.30;99.90
43227;DHT22;28839;52.404;9.808;2022-10-16T01:34:03;12.40;99.90
43227;DHT22;28839;52.404;9.808;2022-10-16T01:41:04;12.50;99.90
43227;DHT22;28839;52.404;9.808;2022-10-16T01:48:02;12.30;99.90
43227;DHT22;28839;52.404;9.808;2022-10-16T01:55:02;12.20;99.90
43227;DHT22;28839;52.404;9.808;2022-10-16T02:02:01;12.30;99.90
43227;DHT22;28839;52.404;9.808;2022-10-16T02:08:59;12.10;99.90
43227;DHT22;28839;52.404;9.808;2022-10-16T02:15:53;12.10;99.90
43227;DHT22;28839;52.404;9.808;2022-10-16T02:22:48;11.90;99.90
43227;DHT22;28839;52.404;9.808;2022-10-16T02:29:47;11.70;99.90
43227;DHT22;28839;52.404;9.808;2022-10-16T02:36:43;11.60;99.90
43227;DHT22;28839;52.404;9.808;2022-10-16T02:43:38;11.50;99.90
43227;DHT22;28839;52.404;9.808;2022-10-16T02:50:33;11.30;99.90
43227;DHT22;28839;52.404;9.808;2022-10-16T02:57:27;11.20;99.90
43227;DHT22;28839;52.404;9.808;2022-10-16T03:04:21;11.20;99.90
43227;DHT22;28839;52.404;9.808;2022-10-16T03:11:16;11.20;99.90
43227;DHT22;28839;52.404;9.808;2022-10-16T03:18:10;11.40;99.90
43227;DHT22;28839;52.404;9.808;2022-10-16T03:25:05;11.50;99.90
43227;DHT22;28839;52.404;9.808;2022-10-16T03:32:00;11.60;99.90
43227;DHT22;28839;52.404;9.808;2022-10-16T03:38:54;11.70;99.90
43227;DHT22;28839;52.404;9.808;2022-10-16T03:45:50;11.70;99.90
43227;DHT22;28839;52.404;9.808;2022-10-16T03:52:45;11.70;99.90
43227;DHT22;28839;52.404;9.808;2022-10-16T03:59:40;11.90;99.90
43227;DHT22;28839;52.404;9.808;2022-10-16T04:06:33;12.30;99.90
43227;DHT22;28839;52.404;9.808;2022-10-16T04:13:29;12.40;99.90
43227;DHT22;28839;52.404;9.808;2022-10-16T04:20:22;12.40;99.90
43227;DHT22;28839;52.404;9.808;2022-10-16T04:27:16;12.30;99.90
43227;DHT22;28839;52.404;9.808;2022-10-16T04:34:11;12.40;99.90
43227;DHT22;28839;52.404;9.808;2022-10-16T04:41:06;12.30;99.90
43227;DHT22;28839;52.404;9.808;2022-10-16T04:48:00;12.20;99.90
43227;DHT22;28839;52.404;9.808;2022-10-16T04:54:55;12.40;99.90
43227;DHT22;28839;52.404;9.808;2022-10-16T05:01:53;12.20;99.90
43227;DHT22;28839;52.404;9.808;2022-10-16T05:08:46;12.10;99.90
43227;DHT22;28839;52.404;9.808;2022-10-16T05:15:42;12.00;99.90
43227;DHT22;28839;52.404;9.808;2022-10-16T05:22:35;12.00;99.90
43227;DHT22;28839;52.404;9.808;2022-10-16T05:29:29;11.80;99.90
43227;DHT22;28839;52.404;9.808;2022-10-16T05:36:25;11.70;99.90
43227;DHT22;28839;52.404;9.808;2022-10-16T05:43:19;11.70;99.90
43227;DHT22;28839;52.404;9.808;2022-10-16T05:50:14;12.00;99.90
43227;DHT22;28839;52.404;9.808;2022-10-16T05:57:09;12.20;99.90
43227;DHT22;28839;52.404;9.808;2022-10-16T06:04:03;12.40;99.90
43227;DHT22;28839;52.404;9.808;2022-10-16T06:11:03;12.40;99.90
43227;DHT22;28839;52.404;9.808;2022-10-16T06:17:58;12.50;99.90
43227;DHT22;28839;52.404;9.808;2022-10-16T06:24:52;12.70;99.90
43227;DHT22;28839;52.404;9.808;2022-10-16T06:31:46;12.80;99.90
43227;DHT22;28839;52.404;9.808;2022-10-16T06:38:41;13.10;99.90
43227;DHT22;28839;52.404;9.808;2022-10-16T06:45:35;13.20;99.90
43227;DHT22;28839;52.404;9.808;2022-10-16T06:52:29;13.30;99.90
43227;DHT22;28839;52.404;9.808;2022-10-16T06:59:24;13.50;99.90
43227;DHT22;28839;52.404;9.808;2022-10-16T07:06:20;13.80;99.90
43227;DHT22;28839;52.404;9.808;2022-10-16T07:13:14;14.00;99.90
43227;DHT22;28839;52.404;9.808;2022-10-16T07:20:10;14.10;99.90
43227;DHT22;28839;52.404;9.808;2022-10-16T07:33:59;14.50;99.90
43227;DHT22;28839;52.404;9.808;2022-10-16T07:40:58;14.60;99.90
43227;DHT22;28839;52.404;9.808;2022-10-16T07:47:53;14.70;99.90
43227;DHT22;28839;52.404;9.808;2022-10-16T07:54:46;15.50;99.90
43227;DHT22;28839;52.404;9.808;2022-10-16T08:01:42;15.90;99.90
43227;DHT22;28839;52.404;9.808;2022-10-16T08:08:36;15.90;99.90
43227;DHT22;28839;52.404;9.808;2022-10-16T08:15:29;16.10;99.90
43227;DHT22;28839;52.404;9.808;2022-10-16T08:22:25;16.10;99.90
43227;DHT22;28839;52.404;9.808;2022-10-16T08:29:19;16.30;99.90
43227;DHT22;28839;52.404;9.808;2022-10-16T08:36:14;16.40;99.90
43227;DHT22;28839;52.404;9.808;2022-10-16T08:43:36;16.40;99.90
43227;DHT22;28839;52.404;9.808;2022-10-16T08:50:38;16.50;99.90
43227;DHT22;28839;52.404;9.808;2022-10-16T08:57:33;16.50;99.90
43227;DHT22;28839;52.404;9.808;2022-10-16T09:04:50;16.70;99.90
43227;DHT22;28839;52.404;9.808;2022-10-16T09:11:50;16.80;99.90
43227;DHT22;28839;52.404;9.808;2022-10-16T09:18:53;16.80;99.90
43227;DHT22;28839;52.404;9.808;2022-10-16T09:25:50;16.90;99.90
43227;DHT22;28839;52.404;9.808;2022-10-16T09:32:45;17.20;99.90
43227;DHT22;28839;52.404;9.808;2022-10-16T09:39:47;17.40;99.90
43227;DHT22;28839;52.404;9.808;2022-10-16T09:46:43;17.40;99.90
43227;DHT22;28839;52.404;9.808;2022-10-16T09:53:41;17.70;99.90
43227;DHT22;28839;52.404;9.808;2022-10-16T10:00:36;18.00;99.90
43227;DHT22;28839;52.404;9.808;2022-10-16T10:07:33;18.00;99.90
43227;DHT22;28839;52.404;9.808;2022-10-16T10:14:30;18.30;99.90
43227;DHT22;28839;52.404;9.808;2022-10-16T10:21:25;18.20;99.90
43227;DHT22;28839;52.404;9.808;2022-10-16T10:28:38;18.40;99.90
43227;DHT22;28839;52.404;9.808;2022-10-16T10:35:36;18.30;99.90
43227;DHT22;28839;52.404;9.808;2022-10-16T10:42:37;18.30;99.90
43227;DHT22;28839;52.404;9.808;2022-10-16T10:49:46;17.70;99.90
43227;DHT22;28839;52.404;9.808;2022-10-16T10:56:46;18.00;99.90
43227;DHT22;28839;52.404;9.808;2022-10-16T11:03:54;18.10;99.90
43227;DHT22;28839;52.404;9.808;2022-10-16T11:10:56;18.60;99.90
43227;DHT22;28839;52.404;9.808;2022-10-16T11:17:54;18.60;99.90
43227;DHT22;28839;52.404;9.808;2022-10-16T11:24:53;18.70;99.90
43227;DHT22;28839;52.404;9.808;2022-10-16T11:31:53;18.80;99.90
43227;DHT22;28839;52.404;9.808;2022-10-16T11:38:51;19.10;99.90
43227;DHT22;28839;52.404;9.808;2022-10-16T11:45:50;19.10;99.90
43227;DHT22;28839;52.404;9.808;2022-10-16T11:52:52;19.00;99.90
43227;DHT22;28839;52.404;9.808;2022-10-16T11:59:51;18.70;99.90
43227;DHT22;28839;52.404;9.808;2022-10-16T12:06:49;18.70;99.90
43227;DHT22;28839;52.404;9.808;2022-10-16T12:13:47;19.00;99.90
43227;DHT22;28839;52.404;9.808;2022-10-16T12:20:41;19.00;99.90
43227;DHT22;28839;52.404;9.808;2022-10-16T12:27:38;18.90;99.90
43227;DHT22;28839;52.404;9.808;2022-10-16T12:34:39;18.50;99.90
43227;DHT22;28839;52.404;9.808;2022-10-16T12:41:35;18.40;99.90
43227;DHT22;28839;52.404;9.808;2022-10-16T12:48:32;18.60;99.90
43227;DHT22;28839;52.404;9.808;2022-10-16T12:55:33;18.90;99.90
43227;DHT22;28839;52.404;9.808;2022-10-16T13:03:02;19.40;99.90
43227;DHT22;28839;52.404;9.808;2022-10-16T13:10:09;19.40;99.90
43227;DHT22;28839;52.404;9.808;2022-10-16T13:17:13;19.40;99.90
43227;DHT22;28839;52.404;9.808;2022-10-16T13:24:18;19.60;99.90
43227;DHT22;28839;52.404;9.808;2022-10-16T13:31:18;19.60;99.90
43227;DHT22;28839;52.404;9.808;2022-10-16T13:38:16;19.80;99.90
43227;DHT22;28839;52.404;9.808;2022-10-16T13:45:18;19.70;99.90
43227;DHT22;28839;52.404;9.808;2022-10-16T13:52:19;19.10;99.90
43227;DHT22;28839;52.404;9.808;2022-10-16T13:59:25;18.70;99.90
43227;DHT22;28839;52.404;9.808;2022-10-16T14:06:21;18.80;99.90
43227;DHT22;28839;52.404;9.808;2022-10-16T14:13:18;18.90;99.90
43227;DHT22;28839;52.404;9.808;2022-10-16T14:20:15;18.90;99.90
43227;DHT22;28839;52.404;9.808;2022-10-16T14:27:25;18.80;99.90
43227;DHT22;28839;52.404;9.808;2022-10-16T14:34:24;18.60;99.90
43227;DHT22;28839;52.404;9.808;2022-10-16T14:41:22;18.90;99.90
43227;DHT22;28839;52.404;9.808;2022-10-16T14:48:18;18.90;99.90
43227;DHT22;28839;52.404;9.808;2022-10-16T14:55:12;18.90;99.90
43227;DHT22;28839;52.404;9.808;2022-10-16T15:02:18;18.90;99.90
43227;DHT22;28839;52.404;9.808;2022-10-16T15:09:12;19.00;99.90
43227;DHT22;28839;52.404;9.808;2022-10-16T15:16:08;18.80;99.90
43227;DHT22;28839;52.404;9.808;2022-10-16T15:23:10;18.70;99.90
43227;DHT22;28839;52.404;9.808;2022-10-16T15:30:07;18.50;99.90
43227;DHT22;28839;52.404;9.808;2022-10-16T15:37:02;18.50;99.90
43227;DHT22;28839;52.404;9.808;2022-10-16T15:43:57;18.30;99.90
43227;DHT22;28839;52.404;9.808;2022-10-16T15:50:51;18.00;99.90
43227;DHT22;28839;52.404;9.808;2022-10-16T15:57:45;17.60;99.90
43227;DHT22;28839;52.404;9.808;2022-10-16T16:04:41;17.30;99.90
43227;DHT22;28839;52.404;9.808;2022-10-16T16:11:34;16.60;99.90
43227;DHT22;28839;52.404;9.808;2022-10-16T16:18:31;16.50;99.90
43227;DHT22;28839;52.404;9.808;2022-10-16T16:25:26;16.30;99.90
43227;DHT22;28839;52.404;9.808;2022-10-16T16:32:20;15.70;99.90
43227;DHT22;28839;52.404;9.808;2022-10-16T16:39:14;15.40;99.90
43227;DHT22;28839;52.404;9.808;2022-10-16T16:46:09;15.20;99.90
43227;DHT22;28839;52.404;9.808;2022-10-16T16:53:03;14.90;99.90
43227;DHT22;28839;52.404;9.808;2022-10-16T16:59:57;14.70;99.90
43227;DHT22;28839;52.404;9.808;2022-10-16T17:06:52;14.50;99.90
43227;DHT22;28839;52.404;9.808;2022-10-16T17:13:47;14.30;99.90
43227;DHT22;28839;52.404;9.808;2022-10-16T17:20:41;14.20;99.90
43227;DHT22;28839;52.404;9.808;2022-10-16T17:27:36;14.10;99.90
43227;DHT22;28839;52.404;9.808;2022-10-16T17:34:30;14.20;99.90
43227;DHT22;28839;52.404;9.808;2022-10-16T17:41:24;14.30;99.90
43227;DHT22;28839;52.404;9.808;2022-10-16T17:48:19;14.30;99.90
43227;DHT22;28839;52.404;9.808;2022-10-16T17:55:13;14.10;99.90
43227;DHT22;28839;52.404;9.808;2022-10-16T18:02:08;14.10;99.90
43227;DHT22;28839;52.404;9.808;2022-10-16T18:09:04;14.10;99.90
43227;DHT22;28839;52.404;9.808;2022-10-16T18:15:59;14.00;99.90
43227;DHT22;28839;52.404;9.808;2022-10-16T18:22:54;14.00;99.90
43227;DHT22;28839;52.404;9.808;2022-10-16T18:29:49;14.00;99.90
43227;DHT22;28839;52.404;9.808;2022-10-16T18:36:48;14.00;99.90
43227;DHT22;28839;52.404;9.808;2022-10-16T18:43:41;13.90;99.90
43227;DHT22;28839;52.404;9.808;2022-10-16T18:50:37;13.90;99.90
43227;DHT22;28839;52.404;9.808;2022-10-16T18:57:31;13.70;99.90
43227;DHT22;28839;52.404;9.808;2022-10-16T19:04:25;13.60;99.90
43227;DHT22;28839;52.404;9.808;2022-10-16T19:11:21;13.50;99.90
43227;DHT22;28839;52.404;9.808;2022-10-16T19:18:16;13.50;99.90
43227;DHT22;28839;52.404;9.808;2022-10-16T19:25:10;13.40;99.90
43227;DHT22;28839;52.404;9.808;2022-10-16T19:32:06;13.30;99.90
43227;DHT22;28839;52.404;9.808;2022-10-16T19:39:01;13.30;99.90
43227;DHT22;28839;52.404;9.808;2022-10-16T19:45:55;13.30;99.90
43227;DHT22;28839;52.404;9.808;2022-10-16T19:52:50;13.20;99.90
43227;DHT22;28839;52.404;9.808;2022-10-16T19:59:44;13.10;99.90
43227;DHT22;28839;52.404;9.808;2022-10-16T20:06:38;13.00;99.90
43227;DHT22;28839;52.404;9.808;2022-10-16T20:13:33;13.00;99.90
43227;DHT22;28839;52.404;9.808;2022-10-16T20:20:27;13.10;99.90
43227;DHT22;28839;52.404;9.808;2022-10-16T20:27:21;13.10;99.90
43227;DHT22;28839;52.404;9.808;2022-10-16T20:34:17;13.20;99.90
43227;DHT22;28839;52.404;9.808;2022-10-16T20:41:12;13.10;99.90
43227;DHT22;28839;52.404;9.808;2022-10-16T20:48:06;13.10;99.90
43227;DHT22;28839;52.404;9.808;2022-10-16T20:55:01;13.10;99.90
43227;DHT22;28839;52.404;9.808;2022-10-16T21:01:55;13.10;99.90
43227;DHT22;28839;52.404;9.808;2022-10-16T21:08:50;13.10;99.90
43227;DHT22;28839;52.404;9.808;2022-10-16T21:15:45;13.20;99.90
43227;DHT22;28839;52.404;9.808;2022-10-16T21:22:39;13.20;99.90
43227;DHT22;28839;52.404;9.808;2022-10-16T21:29:33;13.30;99.90
43227;DHT22;28839;52.404;9.808;2022-10-16T21:36:29;13.40;99.90
43227;DHT22;28839;52.404;9.808;2022-10-16T21:43:23;13.50;99.90
43227;DHT22;28839;52.404;9.808;2022-10-16T21:50:17;13.60;99.90
43227;DHT22;28839;52.404;9.808;2022-10-16T21:57:12;13.70;99.90
43227;DHT22;28839;52.404;9.808;2022-10-16T22:04:08;13.60;99.90
43227;DHT22;28839;52.404;9.808;2022-10-16T22:11:03;13.50;99.90
43227;DHT22;28839;52.404;9.808;2022-10-16T22:17:59;13.50;99.90
43227;DHT22;28839;52.404;9.808;2022-10-16T22:24:53;13.40;99.90
43227;DHT22;28839;52.404;9.808;2022-10-16T22:31:50;13.30;99.90
43227;DHT22;28839;52.404;9.808;2022-10-16T22:38:46;13.30;99.90
43227;DHT22;28839;52.404;9.808;2022-10-16T22:45:39;13.20;99.90
43227;DHT22;28839;52.404;9.808;2022-10-16T22:52:33;13.20;99.90
43227;DHT22;28839;52.404;9.808;2022-10-16T22:59:29;13.20;99.90
43227;DHT22;28839;52.404;9.808;2022-10-16T23:06:23;13.20;99.90
43227;DHT22;28839;52.404;9.808;2022-10-16T23:13:17;13.10;99.90
43227;DHT22;28839;52.404;9.808;2022-10-16T23:20:12;13.20;99.90
43227;DHT22;28839;52.404;9.808;2022-10-16T23:27:06;13.10;99.90
43227;DHT22;28839;52.404;9.808;2022-10-16T23:34:00;13.00;99.90
43227;DHT22;28839;52.404;9.808;2022-10-16T23:40:55;13.00;99.90
43227;DHT22;28839;52.404;9.808;2022-10-16T23:47:49;12.90;99.90
43227;DHT22;28839;52.404;9.808;2022-10-16T23:54:43;12.80;99.90
